createdAt,value
2022-10-25T00:01:28.716Z,91.78
2022-10-25T00:03:59.282Z,91.14
2022-10-25T00:06:27.666Z,92.07
2022-10-25T00:08:55.731Z,92.76
2022-10-25T00:11:26.032Z,92.59
2022-10-25T00:13:56.154Z,92.04
2022-10-25T00:16:25.972Z,92.87
2022-10-25T00:18:54.736Z,92.33
2022-10-25T00:21:24.606Z,92.59
2022-10-25T00:23:53.681Z,92.51
2022-10-25T00:26:22.652Z,91.80
2022-10-25T00:28:50.706Z,91.91
2022-10-25T00:31:19.635Z,89.80
2022-10-25T00:33:47.826Z,89.54
2022-10-25T00:36:18.194Z,88.57
2022-10-25T00:38:48.246Z,88.92
2022-10-25T00:41:18.793Z,88.08
2022-10-25T00:43:49.087Z,87.50
2022-10-25T00:46:25.264Z,87.38
2022-10-25T00:48:58.195Z,87.30
2022-10-25T00:51:33.142Z,86.72
2022-10-25T00:54:03.063Z,86.69
2022-10-25T00:56:34.734Z,86.65
2022-10-25T00:59:05.650Z,86.61
2022-10-25T01:01:34.186Z,86.75
2022-10-25T01:04:07.308Z,86.20
2022-10-25T01:06:40.261Z,86.04
2022-10-25T01:09:12.538Z,86.30
2022-10-25T01:11:40.594Z,86.28
2022-10-25T01:14:10.769Z,86.09
2022-10-25T01:16:49.678Z,85.70
2022-10-25T01:19:38.395Z,85.66
2022-10-25T01:22:10.150Z,86.30
2022-10-25T01:25:20.437Z,88.05
2022-10-25T01:28:15.045Z,89.86
2022-10-25T01:30:56.355Z,90.14
2022-10-25T01:33:30.977Z,91.40
2022-10-25T01:36:05.878Z,91.73
2022-10-25T01:38:40.792Z,92.68
2022-10-25T01:41:18.670Z,92.15
2022-10-25T01:43:56.819Z,92.10
2022-10-25T01:46:32.614Z,91.12
2022-10-25T01:49:05.719Z,90.80
2022-10-25T01:51:37.350Z,90.74
2022-10-25T01:54:17.921Z,90.33
2022-10-25T01:56:54.478Z,89.67
2022-10-25T01:59:38.881Z,89.23
2022-10-25T02:02:13.412Z,88.76
2022-10-25T02:04:51.694Z,88.49
2022-10-25T02:07:26.665Z,88.28
2022-10-25T02:12:48.636Z,88.11
2022-10-25T02:15:22.974Z,88.29
2022-10-25T02:17:56.111Z,88.24
2022-10-25T02:20:27.073Z,87.91
2022-10-25T02:22:56.775Z,88.44
2022-10-25T02:25:25.086Z,88.05
2022-10-25T02:27:56.468Z,87.89
2022-10-25T02:30:24.795Z,87.32
2022-10-25T02:32:54.245Z,87.71
2022-10-25T02:35:22.424Z,87.86
2022-10-25T02:37:50.537Z,87.79
2022-10-25T02:40:18.860Z,87.39
2022-10-25T02:42:47.221Z,88.32
2022-10-25T02:45:15.366Z,87.57
2022-10-25T02:47:44.007Z,86.85
2022-10-25T02:50:14.120Z,86.91
2022-10-25T02:52:42.313Z,87.26
2022-10-25T02:55:10.759Z,86.78
2022-10-25T02:57:39.617Z,86.42
2022-10-25T03:00:09.507Z,86.48
2022-10-25T03:02:37.614Z,86.33
2022-10-25T03:05:06.255Z,86.78
2022-10-25T03:07:35.713Z,87.42
2022-10-25T03:10:03.768Z,88.05
2022-10-25T03:12:31.842Z,87.94
2022-10-25T03:14:59.995Z,88.89
2022-10-25T03:17:28.425Z,89.04
2022-10-25T03:19:56.465Z,89.06
2022-10-25T03:22:24.538Z,89.00
2022-10-25T03:24:54.389Z,89.12
2022-10-25T03:27:22.477Z,88.76
2022-10-25T03:29:50.527Z,89.05
2022-10-25T03:32:18.685Z,88.89
2022-10-25T03:34:46.678Z,89.02
2022-10-25T03:37:14.821Z,88.99
2022-10-25T03:39:42.917Z,88.93
2022-10-25T03:42:12.419Z,89.10
2022-10-25T03:44:40.763Z,89.11
2022-10-25T03:47:08.929Z,89.06
2022-10-25T03:49:36.993Z,89.20
2022-10-25T03:52:06.926Z,88.96
2022-10-25T03:54:35.988Z,88.98
2022-10-25T03:57:04.663Z,88.95
2022-10-25T03:59:34.214Z,89.05
2022-10-25T04:02:02.734Z,88.84
2022-10-25T04:04:30.953Z,88.66
2022-10-25T04:06:59.140Z,88.96
2022-10-25T04:09:27.292Z,89.14
2022-10-25T04:11:55.779Z,89.28
2022-10-25T04:14:24.704Z,89.21
2022-10-25T04:16:54.692Z,89.31
2022-10-25T04:19:22.660Z,89.42
2022-10-25T04:21:50.808Z,89.29
2022-10-25T04:24:19.133Z,89.40
2022-10-25T04:26:47.215Z,89.50
2022-10-25T04:29:16.120Z,89.77
2022-10-25T04:31:44.504Z,89.89
2022-10-25T04:34:14.337Z,89.94
2022-10-25T04:36:42.958Z,90.05
2022-10-25T04:39:11.349Z,90.09
2022-10-25T04:41:39.663Z,90.34
2022-10-25T04:44:07.877Z,90.51
2022-10-25T04:46:36.275Z,90.60
2022-10-25T04:49:04.704Z,90.77
2022-10-25T04:51:34.817Z,90.80
2022-10-25T04:54:02.957Z,90.86
2022-10-25T04:56:31.674Z,91.15
2022-10-25T04:59:00.962Z,91.20
2022-10-25T05:01:29.371Z,91.36
2022-10-25T05:03:57.885Z,90.95
2022-10-25T05:06:28.061Z,91.03
2022-10-25T05:08:58.042Z,91.14
2022-10-25T05:11:26.831Z,91.19
2022-10-25T05:13:55.073Z,91.32
2022-10-25T05:16:26.018Z,91.48
2022-10-25T05:18:56.112Z,91.58
2022-10-25T05:21:28.978Z,91.54
2022-10-25T05:24:01.641Z,91.89
2022-10-25T05:26:32.330Z,91.92
2022-10-25T05:29:00.717Z,91.79
2022-10-25T05:31:31.239Z,91.78
2022-10-25T05:34:01.019Z,91.74
2022-10-25T05:36:29.949Z,91.54
2022-10-25T05:39:01.042Z,91.38
2022-10-25T05:41:31.903Z,91.14
2022-10-25T05:44:02.786Z,91.44
2022-10-25T05:46:31.446Z,91.32
2022-10-25T05:49:00.708Z,90.96
2022-10-25T05:51:35.340Z,90.81
2022-10-25T05:54:07.152Z,91.14
2022-10-25T05:56:37.377Z,90.85
2022-10-25T05:59:08.971Z,91.63
2022-10-25T06:01:38.358Z,92.48
2022-10-25T06:04:07.807Z,92.81
2022-10-25T06:06:38.231Z,93.51
2022-10-25T06:09:08.773Z,93.19
2022-10-25T06:11:37.208Z,93.10
2022-10-25T06:14:06.053Z,92.37
2022-10-25T06:16:34.404Z,90.19
2022-10-25T06:19:02.996Z,89.14
2022-10-25T06:21:31.226Z,88.40
2022-10-25T06:24:00.488Z,86.42
2022-10-25T06:26:31.300Z,84.05
2022-10-25T06:29:00.970Z,83.52
2022-10-25T06:31:30.495Z,82.97
2022-10-25T06:34:00.333Z,81.59
2022-10-25T06:36:28.908Z,79.01
2022-10-25T06:39:00.671Z,78.48
2022-10-25T06:41:33.041Z,78.59
2022-10-25T06:44:06.203Z,78.58
2022-10-25T06:46:57.821Z,79.41
2022-10-25T06:49:24.941Z,79.09
2022-10-25T06:51:53.002Z,78.94
2022-10-25T06:54:21.190Z,78.13
2022-10-25T06:56:51.577Z,77.56
2022-10-25T06:59:20.733Z,75.94
2022-10-25T07:01:50.343Z,75.51
2022-10-25T07:04:18.602Z,74.08
2022-10-25T07:06:49.953Z,72.80
2022-10-25T07:09:21.202Z,70.21
2022-10-25T07:11:50.718Z,69.92
2022-10-25T07:14:18.930Z,69.94
2022-10-25T07:16:46.982Z,67.51
2022-10-25T07:19:15.893Z,68.71
2022-10-25T07:21:45.310Z,67.84
2022-10-25T07:24:13.889Z,67.72
2022-10-25T07:26:42.029Z,65.68
2022-10-25T07:29:12.251Z,63.61
2022-10-25T07:31:43.421Z,64.02
2022-10-25T07:34:13.917Z,62.73
2022-10-25T07:36:42.541Z,63.65
2022-10-25T07:39:11.060Z,63.49
2022-10-25T07:41:39.233Z,63.75
2022-10-25T07:44:11.729Z,60.28
2022-10-25T07:46:45.022Z,59.41
2022-10-25T07:49:13.451Z,57.98
2022-10-25T07:51:41.506Z,58.07
2022-10-25T07:54:09.894Z,58.69
2022-10-25T07:56:38.054Z,58.67
2022-10-25T07:59:06.299Z,56.91
2022-10-25T08:01:34.534Z,57.77
2022-10-25T08:04:04.092Z,57.97
2022-10-25T08:06:32.152Z,58.08
2022-10-25T08:09:05.564Z,58.02
2022-10-25T08:11:43.959Z,58.68
2022-10-25T08:14:12.171Z,59.41
2022-10-25T08:16:40.302Z,58.48
2022-10-25T08:19:09.914Z,58.62
2022-10-25T08:21:38.077Z,57.56
2022-10-25T08:24:07.150Z,59.01
2022-10-25T08:26:36.987Z,58.33
2022-10-25T08:29:05.541Z,56.95
2022-10-25T08:31:33.655Z,56.61
2022-10-25T08:34:02.193Z,56.30
2022-10-25T08:36:31.909Z,55.53
2022-10-25T08:39:00.050Z,55.63
2022-10-25T08:41:37.174Z,55.13
2022-10-25T08:44:17.618Z,54.02
2022-10-25T08:46:55.757Z,52.01
2022-10-25T08:49:29.508Z,51.95
2022-10-25T08:52:01.959Z,52.21
2022-10-25T08:54:32.384Z,51.99
2022-10-25T08:57:16.285Z,53.32
2022-10-25T08:59:49.065Z,53.69
2022-10-25T09:02:29.498Z,52.02
2022-10-25T09:04:57.790Z,52.66
2022-10-25T09:08:04.373Z,51.84
2022-10-25T09:10:50.185Z,52.17
2022-10-25T09:13:31.320Z,52.46
2022-10-25T09:16:09.529Z,53.96
2022-10-25T09:18:44.532Z,52.45
2022-10-25T09:21:22.665Z,53.78
2022-10-25T09:24:18.359Z,53.02
2022-10-25T09:26:55.589Z,52.72
2022-10-25T09:29:30.196Z,51.25
2022-10-25T09:32:00.149Z,51.10
2022-10-25T09:34:33.129Z,51.52
2022-10-25T09:37:08.098Z,50.41
2022-10-25T09:39:41.749Z,50.42
2022-10-25T09:42:19.629Z,50.29
2022-10-25T09:44:53.631Z,50.29
2022-10-25T09:47:30.289Z,49.85
2022-10-25T09:50:03.290Z,50.71
2022-10-25T09:52:43.126Z,51.29
2022-10-25T09:55:36.503Z,51.00
2022-10-25T09:58:05.337Z,51.69
2022-10-25T10:00:38.167Z,53.56
2022-10-25T10:03:06.261Z,52.00
2022-10-25T10:05:34.510Z,53.39
2022-10-25T10:08:02.564Z,52.93
2022-10-25T10:10:36.291Z,53.33
2022-10-25T10:13:13.537Z,55.04
2022-10-25T10:15:51.354Z,53.90
2022-10-25T10:18:24.566Z,54.73
2022-10-25T10:21:09.446Z,54.88
2022-10-25T10:23:45.753Z,53.33
2022-10-25T10:26:22.661Z,52.20
2022-10-25T10:28:52.658Z,52.36
2022-10-25T10:31:21.085Z,53.39
2022-10-25T10:33:51.188Z,54.10
2022-10-25T10:36:28.812Z,54.34
2022-10-25T10:39:19.933Z,53.98
2022-10-25T10:42:03.529Z,54.11
2022-10-25T10:44:34.770Z,55.18
2022-10-25T10:47:13.189Z,53.17
2022-10-25T10:49:43.571Z,55.41
2022-10-25T10:52:29.450Z,56.63
2022-10-25T10:54:59.009Z,55.04
2022-10-25T10:57:33.118Z,55.90
2022-10-25T11:00:02.707Z,57.38
2022-10-25T11:02:40.872Z,58.06
2022-10-25T11:05:21.961Z,55.43
2022-10-25T11:07:56.716Z,55.51
2022-10-25T11:10:27.685Z,57.24
2022-10-25T11:13:28.486Z,58.20
2022-10-25T11:16:21.981Z,58.01
2022-10-25T11:19:06.746Z,58.15
2022-10-25T11:21:53.691Z,59.24
2022-10-25T11:24:31.365Z,58.21
2022-10-25T11:27:11.155Z,57.99
2022-10-25T11:29:55.189Z,58.43
2022-10-25T11:32:51.271Z,55.11
2022-10-25T11:35:33.175Z,57.32
2022-10-25T11:38:08.440Z,55.59
2022-10-25T11:40:41.978Z,57.17
2022-10-25T11:43:26.749Z,52.27
2022-10-25T11:46:06.031Z,55.51
2022-10-25T11:48:58.245Z,56.63
2022-10-25T11:51:34.554Z,55.38
2022-10-25T11:54:15.262Z,56.06
2022-10-25T11:56:52.773Z,54.53
2022-10-25T11:59:27.708Z,55.06
2022-10-25T12:02:15.098Z,55.02
2022-10-25T12:04:58.284Z,52.18
2022-10-25T12:07:31.795Z,53.73
2022-10-25T12:10:08.769Z,55.66
2022-10-25T12:12:44.617Z,55.39
2022-10-25T12:15:21.358Z,54.06
2022-10-25T12:17:51.957Z,53.77
2022-10-25T12:20:26.195Z,55.22
2022-10-25T12:22:58.364Z,56.63
2022-10-25T12:25:31.190Z,57.03
2022-10-25T12:28:07.028Z,55.23
2022-10-25T12:30:36.981Z,55.34
2022-10-25T12:33:17.180Z,55.57
2022-10-25T12:35:51.038Z,54.78
2022-10-25T12:38:27.453Z,54.17
2022-10-25T12:41:02.343Z,53.86
2022-10-25T12:43:36.488Z,53.60
2022-10-25T12:46:19.817Z,55.07
2022-10-25T12:49:20.211Z,53.24
2022-10-25T12:52:16.378Z,52.75
2022-10-25T12:55:08.565Z,52.34
2022-10-25T12:57:48.212Z,53.55
2022-10-25T13:03:22.002Z,53.25
2022-10-25T13:06:23.498Z,53.64
2022-10-25T13:08:53.884Z,53.73
2022-10-25T13:11:34.570Z,53.54
2022-10-25T13:14:03.775Z,53.87
2022-10-25T13:16:33.587Z,52.71
2022-10-25T13:19:57.725Z,53.48
2022-10-25T13:22:34.137Z,53.87
2022-10-25T13:25:18.937Z,54.59
2022-10-25T13:28:19.393Z,54.23
2022-10-25T13:30:47.880Z,53.62
2022-10-25T13:33:33.870Z,53.60
2022-10-25T13:36:06.461Z,53.93
2022-10-25T13:38:39.635Z,53.54
2022-10-25T13:41:16.615Z,53.19
2022-10-25T13:44:05.509Z,54.53
2022-10-25T13:46:37.431Z,53.44
2022-10-25T13:49:25.099Z,54.21
2022-10-25T13:51:56.886Z,54.29
2022-10-25T13:54:25.856Z,53.91
2022-10-25T13:56:55.854Z,54.64
2022-10-25T13:59:38.925Z,55.19
2022-10-25T14:02:18.799Z,54.67
2022-10-25T14:04:46.985Z,54.52
2022-10-25T14:07:54.422Z,53.79
2022-10-25T14:10:36.727Z,53.50
2022-10-25T14:13:20.666Z,52.46
2022-10-25T14:15:52.650Z,54.13
2022-10-25T14:18:24.471Z,54.19
2022-10-25T14:20:57.727Z,55.74
2022-10-25T14:23:30.718Z,55.35
2022-10-25T14:26:00.626Z,55.87
2022-10-25T14:28:32.434Z,55.30
2022-10-25T14:31:02.302Z,56.25
2022-10-25T14:33:33.826Z,56.64
2022-10-25T14:36:12.023Z,57.06
2022-10-25T14:38:54.224Z,56.57
2022-10-25T14:41:24.573Z,58.16
2022-10-25T14:43:54.619Z,56.73
2022-10-25T14:46:24.182Z,57.22
2022-10-25T14:48:56.730Z,57.84
2022-10-25T14:51:28.823Z,57.17
2022-10-25T14:54:01.860Z,57.99
2022-10-25T14:56:33.706Z,57.78
2022-10-25T14:59:05.767Z,56.99
2022-10-25T15:01:35.313Z,57.07
2022-10-25T15:04:03.992Z,56.69
2022-10-25T15:06:33.789Z,57.77
2022-10-25T15:12:18.200Z,58.58
2022-10-25T15:14:48.515Z,58.22
2022-10-25T15:17:26.330Z,59.30
2022-10-25T15:20:07.690Z,59.21
2022-10-25T15:22:44.803Z,60.66
2022-10-25T15:25:28.335Z,60.65
2022-10-25T15:27:56.424Z,59.75
2022-10-25T15:30:40.865Z,60.63
2022-10-25T15:33:12.443Z,61.59
2022-10-25T15:35:46.656Z,61.67
2022-10-25T15:38:17.542Z,61.48
2022-10-25T15:40:46.223Z,60.72
2022-10-25T15:43:14.297Z,61.41
2022-10-25T15:45:44.218Z,61.56
2022-10-25T15:48:15.922Z,62.17
2022-10-25T15:50:48.863Z,62.47
2022-10-25T15:53:16.953Z,62.87
2022-10-25T15:55:45.970Z,62.74
2022-10-25T15:58:14.351Z,63.40
2022-10-25T16:00:44.697Z,64.05
2022-10-25T16:03:21.452Z,63.91
2022-10-25T16:05:50.858Z,63.77
2022-10-25T16:08:19.330Z,63.63
2022-10-25T16:10:47.978Z,63.92
2022-10-25T16:13:19.395Z,63.71
2022-10-25T16:15:49.094Z,63.66
2022-10-25T16:18:17.160Z,63.16
2022-10-25T16:20:45.233Z,63.59
2022-10-25T16:23:13.407Z,63.80
2022-10-25T16:25:41.417Z,63.54
2022-10-25T16:28:13.533Z,65.14
2022-10-25T16:30:43.122Z,64.02
2022-10-25T16:33:13.803Z,64.38
2022-10-25T16:35:42.491Z,64.62
2022-10-25T16:40:43.753Z,64.89
2022-10-25T16:43:17.431Z,65.47
2022-10-25T16:45:45.585Z,66.10
2022-10-25T16:48:15.468Z,65.85
2022-10-25T16:50:43.855Z,65.91
2022-10-25T16:53:15.118Z,67.16
2022-10-25T16:55:43.475Z,66.40
2022-10-25T16:58:12.646Z,67.31
2022-10-25T17:00:40.807Z,67.32
2022-10-25T17:03:08.888Z,67.08
2022-10-25T17:05:40.108Z,66.90
2022-10-25T17:08:08.508Z,66.56
2022-10-25T17:10:42.413Z,66.14
2022-10-25T17:13:15.874Z,66.92
2022-10-25T17:15:44.530Z,67.21
2022-10-25T17:18:15.927Z,68.57
2022-10-25T17:20:45.534Z,70.77
2022-10-25T17:23:13.700Z,70.55
2022-10-25T17:25:41.783Z,70.37
2022-10-25T17:28:09.835Z,70.57
2022-10-25T17:30:37.774Z,71.27
2022-10-25T17:33:06.059Z,70.79
2022-10-25T17:35:34.119Z,70.96
2022-10-25T17:38:03.617Z,69.72
2022-10-25T17:40:31.727Z,70.35
2022-10-25T17:42:59.804Z,69.53
2022-10-25T17:45:28.327Z,69.73
2022-10-25T17:47:56.370Z,68.88
2022-10-25T17:50:24.802Z,70.15
2022-10-25T17:52:53.536Z,69.92
2022-10-25T17:55:23.009Z,69.81
2022-10-25T17:57:52.002Z,70.46
2022-10-25T18:00:20.445Z,69.31
2022-10-25T18:02:50.877Z,68.25
2022-10-25T18:05:20.959Z,70.13
2022-10-25T18:07:50.528Z,70.45
2022-10-25T18:10:18.994Z,70.24
2022-10-25T18:12:49.405Z,69.89
2022-10-25T18:15:17.934Z,69.69
2022-10-25T18:17:47.040Z,70.38
2022-10-25T18:20:16.066Z,71.15
2022-10-25T18:22:44.234Z,70.84
2022-10-25T18:25:12.588Z,71.58
2022-10-25T18:27:40.677Z,71.04
2022-10-25T18:30:12.539Z,70.89
2022-10-25T18:32:40.683Z,71.33
2022-10-25T18:35:09.533Z,71.39
2022-10-25T18:37:37.595Z,71.08
2022-10-25T18:40:06.655Z,71.50
2022-10-25T18:42:36.676Z,71.33
2022-10-25T18:45:06.133Z,71.10
2022-10-25T18:47:35.945Z,70.83
2022-10-25T18:50:04.026Z,70.74
2022-10-25T18:52:32.081Z,70.64
2022-10-25T18:55:00.142Z,71.02
2022-10-25T18:57:30.920Z,71.45
2022-10-25T18:59:59.119Z,71.46
2022-10-25T19:02:27.438Z,71.86
2022-10-25T19:04:57.385Z,71.02
2022-10-25T19:07:25.483Z,71.08
2022-10-25T19:09:53.553Z,71.50
2022-10-25T19:12:21.938Z,71.95
2022-10-25T19:14:50.334Z,72.03
2022-10-25T19:17:18.940Z,72.38
2022-10-25T19:19:47.006Z,72.72
2022-10-25T19:22:16.951Z,72.31
2022-10-25T19:24:45.094Z,72.24
2022-10-25T19:27:13.340Z,71.99
2022-10-25T19:29:42.007Z,72.93
2022-10-25T19:32:10.334Z,73.08
2022-10-25T19:34:39.020Z,72.55
2022-10-25T19:37:09.031Z,72.07
2022-10-25T19:39:39.114Z,72.10
2022-10-25T19:42:07.571Z,72.08
2022-10-25T19:44:36.128Z,72.19
2022-10-25T19:47:04.770Z,71.87
2022-10-25T19:49:33.125Z,71.67
2022-10-25T19:52:01.334Z,71.87
2022-10-25T19:54:29.926Z,72.30
2022-10-25T19:56:59.910Z,72.53
2022-10-25T19:59:28.314Z,73.48
2022-10-25T20:01:57.055Z,73.05
2022-10-25T20:04:25.559Z,73.66
2022-10-25T20:06:53.881Z,73.48
2022-10-25T20:09:22.176Z,73.93
2022-10-25T20:11:50.267Z,73.95
2022-10-25T20:14:19.888Z,74.50
2022-10-25T20:16:47.979Z,74.47
2022-10-25T20:19:16.446Z,74.83
2022-10-25T20:21:44.510Z,75.70
2022-10-25T20:24:12.643Z,74.65
2022-10-25T20:26:44.784Z,76.02
2022-10-25T20:29:18.651Z,75.97
2022-10-25T20:31:51.985Z,75.82
2022-10-25T20:34:20.686Z,76.35
2022-10-25T20:36:49.723Z,76.04
2022-10-25T20:39:18.113Z,76.54
2022-10-25T20:41:46.387Z,76.57
2022-10-25T20:44:14.890Z,78.27
2022-10-25T20:46:42.999Z,78.71
2022-10-25T20:49:12.675Z,78.53
2022-10-25T20:51:40.859Z,79.16
2022-10-25T20:54:10.199Z,79.88
2022-10-25T20:56:39.662Z,79.75
2022-10-25T20:59:08.458Z,79.76
2022-10-25T21:01:37.301Z,80.72
2022-10-25T21:04:06.235Z,79.60
2022-10-25T21:06:35.697Z,79.72
2022-10-25T21:09:04.147Z,80.14
2022-10-25T21:11:33.027Z,79.80
2022-10-25T21:14:01.198Z,80.91
2022-10-25T21:16:29.769Z,80.41
2022-10-25T21:18:58.191Z,80.12
2022-10-25T21:21:26.821Z,80.48
2022-10-25T21:23:58.138Z,80.70
2022-10-25T21:26:26.223Z,81.52
2022-10-25T21:28:54.587Z,82.32
2022-10-25T21:31:22.991Z,83.09
2022-10-25T21:33:52.519Z,82.97
2022-10-25T21:36:22.685Z,84.07
2022-10-25T21:38:50.874Z,85.06
2022-10-25T21:41:26.957Z,84.11
2022-10-25T21:43:56.758Z,84.97
2022-10-25T21:46:26.660Z,85.16
2022-10-25T21:48:56.306Z,84.76
2022-10-25T21:51:25.811Z,84.47
2022-10-25T21:53:55.335Z,85.16
2022-10-25T21:56:31.172Z,84.48
2022-10-25T21:59:00.518Z,85.26
2022-10-25T22:01:31.028Z,84.68
2022-10-25T22:03:59.423Z,85.90
2022-10-25T22:06:28.780Z,84.72
2022-10-25T22:08:57.866Z,85.65
2022-10-25T22:11:29.737Z,85.20
2022-10-25T22:13:59.193Z,85.76
2022-10-25T22:16:27.541Z,85.84
2022-10-25T22:18:57.904Z,85.97
2022-10-25T22:21:28.074Z,87.00
2022-10-25T22:23:56.167Z,86.96
2022-10-25T22:26:24.353Z,86.71
2022-10-25T22:28:55.250Z,86.54
2022-10-25T22:31:24.011Z,87.83
2022-10-25T22:33:55.311Z,87.68
2022-10-25T22:36:25.246Z,88.50
2022-10-25T22:38:53.918Z,87.87
2022-10-25T22:41:24.506Z,88.31
2022-10-25T22:43:54.389Z,88.57
2022-10-25T22:46:25.545Z,88.99
2022-10-25T22:48:54.811Z,91.28
2022-10-25T22:51:23.990Z,90.58
2022-10-25T22:53:52.287Z,90.85
2022-10-25T22:56:22.323Z,90.41
2022-10-25T22:58:52.329Z,91.67
2022-10-25T23:01:24.962Z,91.49
2022-10-25T23:03:55.864Z,91.40
2022-10-25T23:06:26.298Z,90.56
2022-10-25T23:08:55.226Z,91.65
2022-10-25T23:11:25.565Z,92.11
2022-10-25T23:13:54.232Z,92.53
2022-10-25T23:16:24.115Z,92.24
2022-10-25T23:18:52.670Z,92.90
2022-10-25T23:21:23.543Z,93.16
2022-10-25T23:23:53.121Z,92.41
2022-10-25T23:26:23.045Z,93.02
2022-10-25T23:28:51.215Z,93.40
2022-10-25T23:31:20.132Z,93.85
2022-10-25T23:33:52.192Z,94.99
2022-10-25T23:36:22.018Z,94.19
2022-10-25T23:38:51.292Z,94.59
2022-10-25T23:41:20.376Z,93.88
2022-10-25T23:43:48.527Z,94.06
2022-10-25T23:46:16.682Z,93.93
2022-10-25T23:48:44.846Z,94.19
2022-10-25T23:51:16.774Z,93.49
2022-10-25T23:53:45.966Z,93.39
2022-10-25T23:56:15.189Z,92.68
2022-10-25T23:58:43.483Z,92.03
